METAR Data
IDs: Format: Raw Decoded Include TAF

Data at: 1935 UTC 18 Jul 2019

EBBR 181920Z 23005KT 200V260 9999 FEW024 20/15 Q1012 NOSIG